Raymond, Georgia
Current Conditions -  °F | °C
As of 6:35 AM on Saturday 20 Dec 2014 (Local Time) from KCCO Reporting Station
Light Rain Light Rain  
Wind Chill: 42°   Ceiling: 3000
Heat Index: 42°   Visibility: 5mi
Dew Point: 42°   Wind: 0mph
Humidity: 100%   Direction: NA
Pressure: 30.14"   Gusts: NA
Location:  33.3877°N, 84.8596°W
Report Text: KCCO 201135Z AUTO 00000KT 5SM -RA BKN030 OVC043 06/06 A3014 RMK AO2 T00570057
Loading
Personal Weather Stations






























Interactive Weather Map New forecast layout! Learn more

10-Day Weather Forecast

Advertisements
Track Severe Weather on mobile